EFOUEFRO

Guest
Details From EFOU - Oulu
To EFRO - Rovaniemi
Flight Number -
Tags generated
Created
Modified
Stats Distance 99 nm / 183 km
Max Altitude 9,500 ft / 2,896 m
Waypoints 6
Social Downloads 0
Likes 0
Share VATSIM

Download

Looking for another format? Having issues loading an existing format? Contact us
Advertisement - Login to hide

Notes

Basic altitude profile: - Ascent Rate: 2500ft/min - Ascent Speed: 250kts - Cruise Altitude: 35000ft - Cruise Speed: 420kts - Descent Rate: 1500ft/min - Descent Speed: 250kts Options: - Use NATs: yes - Use PACOTS: yes - Use low airways: yes - Use high airways: yes

Route

EFOU ULTOS M857 ROI EFRO

ID Type Via Altitude Latitude Longitude Leg Dist Tot Dist Heading (true) Name
O EFOU APT - 0 ft / 0 m 64.93006˚ 25.35456˚ - 0 nm - Oulu
ULTOS FIX - 9,100 ft / 2,774 m 65.39944˚ 25.48556˚ 28 nm 28 nm 7° / 7° -
NOPSA FIX M857 (AWY-LO) 9,500 ft / 2,896 m 65.85333˚ 25.61278˚ 27 nm 55 nm 7° / 7° -
NASUL FIX M857 (AWY-LO) 9,500 ft / 2,896 m 66.06611˚ 25.67361˚ 12 nm 68 nm 7° / 7° -
ROI VOR M857 (AWY-LO) 9,500 ft / 2,896 m 66.56254˚ 25.82041˚ 30 nm 98 nm 7° / 7° ROVANI VOR-DME
O EFRO APT - 0 ft / 0 m 66.56482˚ 25.83042˚ 0 nm 98 nm 60° / 60° Rovaniemi

Altitude Profile

Advertisement - Login to hide

EFOU

Details ICAO EFOU (OUL)
Name Oulu
Region Finland
Timezone Europe/Helsinki (UTC+3.0)
Stats Elevation 47 ft / 14 m (AMSL)
Location 64.930059° 25.354560°
Runways 1
Magnetic Variation 10.740° E

METAR

EFOU 201550Z AUTO 22005KT 200V260 CAVOK 18/03 Q1020

Decode

TAF

TAF EFOU 201436Z 2015/2115 27007KT CAVOK

Decode

Departure Runways

ID Width Length Bearing (true) Bearing (mag) Surface Threshold Offset Overrun Length
12 197 ft / 60 m 8,180 ft / 2,493 m 121.01° 110.27° Asphalt 0 ft / 0 m 200 ft / 61 m
30 197 ft / 60 m 8,180 ft / 2,493 m 301.05° 290.31° Asphalt 0 ft / 0 m 200 ft / 61 m

EFRO

Details ICAO EFRO (RVN)
Name Rovaniemi
Region Finland
Timezone Europe/Helsinki (UTC+3.0)
Stats Elevation 632 ft / 193 m (AMSL)
Location 66.564822° 25.830420°
Runways 1
Magnetic Variation 11.576° E

METAR

EFRO 201550Z AUTO 21016KT CAVOK 13/05 Q1018

Decode

TAF

TAF EFRO 201436Z 2015/2115 22015KT CAVOK TEMPO 2108/2115 27018G30KT

Decode

Destination Runways

ID Width Length Bearing (true) Bearing (mag) Surface Threshold Offset Overrun Length
03 197 ft / 60 m 9,819 ft / 2,993 m 37.14° 25.56° Asphalt 0 ft / 0 m 235 ft / 72 m
21 197 ft / 60 m 9,819 ft / 2,993 m 217.18° 205.60° Asphalt 0 ft / 0 m 218 ft / 66 m

Approach Navaids

Runway Type Ident Frequency Range Bearing (true) Bearing (mag) Slope Elevation
21 Localiser RO 111.70 MHz 18 nm / 33 km 217.13° 205.56° - 632 ft / 193 m (AMSL)
21 Glidescope RO 111.70 MHz 10 nm / 19 km 217.16° 205.58° 3.00° 632 ft / 193 m (AMSL)
21 DME RO 111.70 MHz 18 nm / 33 km - - - 673 ft / 205 m (AMSL)

Popular Alternatives